Time;durP1;ratioP1;P1;durP2;ratioP2;P2;SDS_P1;SDS_P2;PMS_P1;PMS_P2;Temp;Humidity;BMP_temperature;BMP_pressure;BME280_temperature;BME280_humidity;BME280_pressure;Samples;Min_cycle;Max_cycle;Signal;HPM_P1;HPM_P2
2023/01/03 00:01:14;;;;;;;5.43;2.30;;;8.00;14.90;;;;;;5067637;28;20185;-84
2023/01/03 00:03:40;;;;;;;6.70;2.40;;;8.00;23.60;;;;;;5066772;28;20679;-84
2023/01/03 00:06:15;;;;;;;5.03;2.40;;;8.00;34.30;;;;;;5056474;28;20221;-84
2023/01/03 00:08:40;;;;;;;3.47;2.20;;;8.00;30.20;;;;;;5071919;28;20193;-85
2023/01/03 00:11:16;;;;;;;3.87;2.40;;;8.00;31.50;;;;;;5062018;28;20266;-83
2023/01/03 00:13:42;;;;;;;4.77;2.27;;;8.00;41.40;;;;;;5075128;28;20180;-84
2023/01/03 00:16:18;;;;;;;5.03;2.47;;;8.00;28.80;;;;;;5065941;28;20214;-83
2023/01/03 00:18:44;;;;;;;4.47;2.50;;;7.90;32.40;;;;;;5064947;28;20197;-84
2023/01/03 00:21:10;;;;;;;4.87;2.83;;;7.80;47.20;;;;;;5064224;28;20815;-84
2023/01/03 00:23:36;;;;;;;4.60;2.80;;;7.80;46.10;;;;;;5063642;28;20181;-84
2023/01/03 00:26:13;;;;;;;5.07;3.50;;;7.80;64.80;;;;;;5064545;28;20243;-84
2023/01/03 00:28:38;;;;;;;4.40;2.93;;;7.80;44.60;;;;;;5073158;28;20279;-83
2023/01/03 00:31:06;;;;;;;5.53;3.50;;;7.80;47.20;;;;;;5067701;28;20368;-84
2023/01/03 00:33:31;;;;;;;4.87;3.30;;;7.80;52.00;;;;;;5065375;28;20216;-85
2023/01/03 00:36:01;;;;;;;8.47;3.50;;;7.80;53.30;;;;;;5066978;28;20237;-83
2023/01/03 00:38:27;;;;;;;5.43;3.67;;;7.80;62.70;;;;;;5058676;28;20204;-84
2023/01/03 00:40:53;;;;;;;8.63;3.87;;;7.80;56.40;;;;;;5070301;28;20177;-84
2023/01/03 00:43:27;;;;;;;5.20;3.63;;;7.70;56.50;;;;;;5072106;28;20182;-84
2023/01/03 00:45:53;;;;;;;4.90;3.87;;;7.70;59.50;;;;;;5072378;28;20181;-84
2023/01/03 00:48:18;;;;;;;4.33;3.70;;;7.70;49.20;;;;;;5070533;28;20314;-83
2023/01/03 00:50:44;;;;;;;4.83;3.63;;;7.80;48.70;;;;;;5069130;28;20616;-83
2023/01/03 00:53:09;;;;;;;6.77;4.00;;;7.80;61.80;;;;;;5068425;28;20189;-84
2023/01/03 00:55:35;;;;;;;7.00;4.37;;;7.70;64.00;;;;;;5069356;28;20699;-84
2023/01/03 00:58:01;;;;;;;8.87;4.37;;;7.70;86.20;;;;;;5070296;28;20185;-83
2023/01/03 01:00:26;;;;;;;5.70;4.77;;;7.70;90.40;;;;;;5068822;28;20216;-83
2023/01/03 01:02:53;;;;;;;7.97;5.07;;;7.60;98.70;;;;;;5070393;28;20192;-85
2023/01/03 01:05:18;;;;;;;5.73;4.90;;;7.60;99.90;;;;;;5068747;28;20182;-85
2023/01/03 01:07:44;;;;;;;6.97;5.53;;;7.50;99.90;;;;;;5068630;28;20178;-83
2023/01/03 01:10:09;;;;;;;8.20;5.37;;;7.50;99.90;;;;;;5068518;28;20205;-84
2023/01/03 01:12:35;;;;;;;7.83;5.53;;;7.40;99.90;;;;;;5069372;28;20177;-84
2023/01/03 01:15:01;;;;;;;7.97;6.13;;;7.30;99.90;;;;;;5074001;28;20282;-83
2023/01/03 01:17:27;;;;;;;7.70;6.27;;;7.20;99.90;;;;;;5072855;28;20182;-84
2023/01/03 01:19:53;;;;;;;8.97;5.70;;;7.20;99.90;;;;;;5074016;28;20660;-83
2023/01/03 01:22:19;;;;;;;7.23;5.73;;;7.20;99.90;;;;;;5074471;28;20576;-81
2023/01/03 01:24:44;;;;;;;8.40;6.23;;;7.20;99.90;;;;;;5072771;28;20190;-83
2023/01/03 01:27:10;;;;;;;6.77;6.00;;;7.10;99.90;;;;;;5071477;28;20638;-83
2023/01/03 01:29:37;;;;;;;11.00;6.67;;;7.10;99.90;;;;;;5073597;28;20705;-83
2023/01/03 01:32:03;;;;;;;8.97;5.73;;;7.20;99.90;;;;;;5072632;28;20205;-84
2023/01/03 01:34:29;;;;;;;8.27;6.00;;;7.10;99.90;;;;;;5071645;28;20198;-84
2023/01/03 01:36:55;;;;;;;8.97;5.80;;;7.10;99.90;;;;;;5073330;28;20232;-84
2023/01/03 01:39:23;;;;;;;8.63;5.10;;;7.00;99.90;;;;;;5072117;28;20225;-82
2023/01/03 01:44:42;;;;;;;8.63;5.07;;;7.00;99.90;;;;;;5070745;28;20254;-82
2023/01/03 01:47:22;;;;;;;7.57;4.90;;;6.90;99.90;;;;;;5072254;28;20196;-82
2023/01/03 01:49:57;;;;;;;6.07;4.83;;;6.90;99.90;;;;;;5078101;28;20209;-82
2023/01/03 01:52:23;;;;;;;6.90;4.93;;;6.90;99.90;;;;;;5072323;28;20192;-84
2023/01/03 01:54:52;;;;;;;6.80;4.93;;;6.90;99.90;;;;;;5070876;28;20236;-84
2023/01/03 01:57:20;;;;;;;8.77;5.00;;;6.90;99.90;;;;;;5079380;28;20200;-82
2023/01/03 01:59:46;;;;;;;7.43;4.47;;;6.90;99.90;;;;;;5073008;28;20209;-83
2023/01/03 02:02:17;;;;;;;6.20;3.97;;;6.90;99.90;;;;;;5070812;28;20216;-84
2023/01/03 02:04:44;;;;;;;4.93;4.03;;;6.90;99.90;;;;;;5087462;28;20673;-83
2023/01/03 02:07:10;;;;;;;4.27;3.60;;;7.00;99.90;;;;;;5070224;28;20220;-83
2023/01/03 02:09:35;;;;;;;4.97;3.27;;;6.90;99.90;;;;;;5070220;28;20225;-82
2023/01/03 02:15:20;;;;;;;5.53;3.23;;;7.00;99.90;;;;;;5071406;28;20266;-82
2023/01/03 02:17:58;;;;;;;6.97;3.73;;;7.00;99.90;;;;;;5071840;28;20193;-82
2023/01/03 02:20:34;;;;;;;4.00;3.03;;;7.00;99.90;;;;;;5069065;28;20304;-81
2023/01/03 02:23:53;;;;;;;4.90;2.93;;;7.00;99.90;;;;;;5079349;28;20185;-81
2023/01/03 02:26:29;;;;;;;4.07;2.50;;;7.00;99.90;;;;;;5017111;28;20191;-81
2023/01/03 02:29:19;;;;;;;5.67;3.07;;;7.00;99.90;;;;;;5076316;28;21089;-81
2023/01/03 02:32:04;;;;;;;6.67;2.40;;;7.00;99.90;;;;;;5074649;28;20239;-83
2023/01/03 02:35:05;;;;;;;5.17;2.37;;;7.00;99.90;;;;;;5076754;28;20268;-82
2023/01/03 02:38:02;;;;;;;4.53;2.27;;;7.00;99.90;;;;;;5075961;28;20744;-80
2023/01/03 02:40:53;;;;;;;6.33;2.70;;;7.00;99.90;;;;;;5073429;28;20564;-81
2023/01/03 02:43:34;;;;;;;5.77;2.63;;;7.00;99.90;;;;;;5067939;28;20173;-84
2023/01/03 02:46:12;;;;;;;4.13;2.43;;;7.00;99.90;;;;;;5067549;28;20170;-83
2023/01/03 02:48:47;;;;;;;9.83;2.47;;;7.00;99.90;;;;;;5075990;28;20194;-83
2023/01/03 02:51:36;;;;;;;3.57;2.40;;;7.00;99.90;;;;;;5070967;28;20176;-83
2023/01/03 02:54:06;;;;;;;5.00;2.20;;;6.90;99.90;;;;;;5082238;22;20230;-78
2023/01/03 02:56:42;;;;;;;5.33;2.73;;;6.90;99.90;;;;;;5046859;28;20217;-80
2023/01/03 02:59:13;;;;;;;5.20;2.80;;;6.90;99.90;;;;;;5045372;28;20223;-80
2023/01/03 03:01:44;;;;;;;5.03;2.60;;;6.90;99.90;;;;;;5045397;28;20659;-80
2023/01/03 03:04:13;;;;;;;5.17;2.57;;;6.90;99.90;;;;;;5044474;28;20182;-77
2023/01/03 03:06:46;;;;;;;6.60;2.60;;;6.80;99.90;;;;;;5061526;28;20269;-80
2023/01/03 03:09:12;;;;;;;8.30;2.77;;;6.70;99.90;;;;;;5046458;28;20214;-80
2023/01/03 03:14:29;;;;;;;3.63;2.50;;;6.50;99.90;;;;;;5046629;28;20197;-80
2023/01/03 03:17:03;;;;;;;5.73;2.80;;;6.30;99.90;;;;;;5045952;28;20174;-80
2023/01/03 03:25:40;;;;;;;5.27;3.10;;;6.10;99.90;;;;;;5046291;28;20198;-80
2023/01/03 03:30:57;;;;;;;9.03;3.27;;;6.30;99.90;;;;;;5046718;28;20209;-80
2023/01/03 03:33:25;;;;;;;6.57;3.37;;;6.30;99.90;;;;;;5046494;28;20252;-81
2023/01/03 03:36:25;;;;;;;3.63;2.83;;;6.30;99.90;;;;;;5045992;28;20569;-82
2023/01/03 03:38:51;;;;;;;6.23;3.23;;;6.40;99.90;;;;;;5042504;28;20225;-80
2023/01/03 03:47:50;;;;;;;6.53;3.43;;;6.50;99.90;;;;;;5046361;28;20181;-80
2023/01/03 03:50:26;;;;;;;4.73;2.87;;;6.50;99.90;;;;;;5046173;28;20205;-80
2023/01/03 03:52:56;;;;;;;4.67;2.87;;;6.60;99.90;;;;;;5046153;28;20221;-80
2023/01/03 03:55:40;;;;;;;7.23;3.40;;;6.50;99.90;;;;;;5044452;28;20212;-80
2023/01/03 03:58:11;;;;;;;4.03;3.17;;;6.40;99.90;;;;;;5046569;28;20193;-81
2023/01/03 04:00:40;;;;;;;6.13;3.10;;;6.30;99.90;;;;;;5045855;28;20838;-80
2023/01/03 04:03:08;;;;;;;5.07;3.03;;;6.20;99.90;;;;;;5044433;28;20880;-80
2023/01/03 04:05:38;;;;;;;8.73;3.80;;;6.20;99.90;;;;;;5044329;28;20182;-80
2023/01/03 04:08:04;;;;;;;6.53;3.00;;;6.10;99.90;;;;;;5046677;28;20178;-81
2023/01/03 04:10:30;;;;;;;7.27;3.67;;;6.10;99.90;;;;;;5044279;28;20209;-80
2023/01/03 04:12:56;;;;;;;5.83;3.70;;;6.00;99.90;;;;;;5045100;28;20311;-80
2023/01/03 04:15:21;;;;;;;10.07;4.23;;;6.00;99.90;;;;;;5046012;28;20205;-80
2023/01/03 04:17:47;;;;;;;7.87;4.27;;;6.00;99.90;;;;;;5045925;28;20174;-79
2023/01/03 04:20:13;;;;;;;5.77;4.17;;;5.90;99.90;;;;;;5045776;28;20205;-79
2023/01/03 04:22:39;;;;;;;7.07;4.00;;;5.80;99.90;;;;;;5044575;28;20178;-81
2023/01/03 04:25:05;;;;;;;6.50;4.40;;;5.70;99.90;;;;;;5045588;28;20185;-81
2023/01/03 04:27:31;;;;;;;6.70;4.60;;;5.70;99.90;;;;;;5044344;28;20265;-80
2023/01/03 04:29:56;;;;;;;6.37;4.27;;;5.60;99.90;;;;;;5046172;28;20206;-81
2023/01/03 04:32:22;;;;;;;7.97;4.83;;;5.50;1.00;;;;;;5044996;28;20193;-82
2023/01/03 04:34:47;;;;;;;7.67;5.03;;;5.50;1.00;;;;;;5046818;28;20201;-80
2023/01/03 04:37:13;;;;;;;5.50;5.00;;;5.60;1.00;;;;;;5046773;28;20257;-80
2023/01/03 04:39:38;;;;;;;7.90;4.53;;;5.60;1.00;;;;;;5045443;28;20244;-80
2023/01/03 04:44:00;;;;;;;7.03;4.63;;;5.60;1.00;;;;;;5044462;28;20190;-80
2023/01/03 04:44:50;;;;;;;7.20;4.40;;;5.70;1.00;;;;;;5045970;28;20217;-80
2023/01/03 04:47:15;;;;;;;11.53;5.17;;;5.80;1.00;;;;;;5045601;28;20228;-79
2023/01/03 04:49:45;;;;;;;6.53;5.00;;;5.80;1.00;;;;;;5045058;28;20256;-79
2023/01/03 04:52:14;;;;;;;6.67;5.17;;;6.00;1.00;;;;;;5044843;28;20263;-79
2023/01/03 04:54:40;;;;;;;9.10;4.57;;;6.20;1.00;;;;;;5046221;28;20774;-80
2023/01/03 04:57:06;;;;;;;8.07;4.77;;;6.30;1.00;;;;;;5044284;28;20178;-80
2023/01/03 04:59:32;;;;;;;6.93;4.87;;;6.30;99.90;;;;;;5046356;28;20206;-80
2023/01/03 05:01:57;;;;;;;8.60;5.07;;;6.20;99.90;;;;;;5046892;28;20253;-81
2023/01/03 05:04:23;;;;;;;6.83;4.73;;;6.30;99.90;;;;;;5049983;28;20205;-80
2023/01/03 05:06:51;;;;;;;8.07;5.97;;;6.10;99.90;;;;;;5050163;28;20257;-83
2023/01/03 05:09:17;;;;;;;6.63;4.97;;;5.90;99.90;;;;;;5048025;28;20229;-81
2023/01/03 05:11:42;;;;;;;7.23;4.80;;;5.80;99.90;;;;;;5051273;28;20229;-79
2023/01/03 05:14:08;;;;;;;8.33;5.67;;;5.80;99.90;;;;;;5050725;28;20225;-82
2023/01/03 05:16:33;;;;;;;7.27;5.57;;;5.90;1.00;;;;;;5047380;28;20210;-79
2023/01/03 05:18:59;;;;;;;5.90;5.17;;;5.80;99.90;;;;;;5048631;28;20302;-80
2023/01/03 05:26:56;;;;;;;8.63;6.10;;;5.90;1.00;;;;;;5048859;28;20288;-80
2023/01/03 05:29:22;;;;;;;8.20;5.50;;;6.20;1.00;;;;;;5048535;28;21116;-79
2023/01/03 05:31:48;;;;;;;9.67;6.00;;;6.20;99.90;;;;;;5047192;28;20186;-80
2023/01/03 05:34:14;;;;;;;7.43;6.20;;;6.20;99.90;;;;;;5048985;28;20197;-79
2023/01/03 05:36:39;;;;;;;8.53;6.53;;;6.10;99.90;;;;;;5046672;28;20209;-80
2023/01/03 05:39:05;;;;;;;7.67;6.00;;;6.00;99.90;;;;;;5048406;28;20206;-79
2023/01/03 05:44:15;;;;;;;8.53;6.57;;;6.00;1.00;;;;;;5047560;28;20243;-79
2023/01/03 05:46:41;;;;;;;10.27;6.80;;;5.90;1.00;;;;;;5047255;28;20178;-79
2023/01/03 05:49:07;;;;;;;8.67;6.50;;;5.80;1.00;;;;;;5047779;28;20202;-79
2023/01/03 05:51:32;;;;;;;7.30;6.50;;;5.80;1.00;;;;;;5048107;28;20240;-80
2023/01/03 05:53:58;;;;;;;9.50;6.70;;;5.90;1.00;;;;;;5047894;28;20240;-80
2023/01/03 05:56:24;;;;;;;8.87;6.97;;;5.90;1.00;;;;;;5046996;28;20706;-79
2023/01/03 05:58:49;;;;;;;7.80;6.67;;;5.90;1.00;;;;;;5049387;28;20202;-79
2023/01/03 06:01:15;;;;;;;8.10;6.77;;;5.90;1.00;;;;;;5046763;28;20225;-79
2023/01/03 06:03:46;;;;;;;8.13;6.13;;;6.00;1.00;;;;;;5048528;28;20266;-79
2023/01/03 06:06:13;;;;;;;9.40;6.97;;;6.00;1.00;;;;;;5047055;28;20208;-79
2023/01/03 06:08:39;;;;;;;10.10;7.73;;;6.00;1.00;;;;;;5047224;28;20185;-79
2023/01/03 06:11:09;;;;;;;11.73;8.20;;;6.00;1.00;;;;;;5038445;28;20193;-81
2023/01/03 06:13:35;;;;;;;12.83;10.03;;;6.10;1.00;;;;;;5047552;28;20193;-80
2023/01/03 06:18:53;;;;;;;10.03;9.03;;;6.20;1.00;;;;;;5047810;28;20217;-79
2023/01/03 06:21:18;;;;;;;13.33;9.53;;;6.20;1.00;;;;;;5047254;28;20194;-79
2023/01/03 06:23:46;;;;;;;13.07;9.30;;;6.20;1.00;;;;;;5046796;28;20186;-80
2023/01/03 06:26:13;;;;;;;12.73;9.87;;;6.20;1.00;;;;;;5044802;28;20202;-80
2023/01/03 06:28:38;;;;;;;11.97;9.63;;;6.20;1.00;;;;;;5045609;28;20268;-79
2023/01/03 06:31:04;;;;;;;11.97;10.00;;;6.20;1.00;;;;;;5044606;28;20648;-79
2023/01/03 06:33:31;;;;;;;12.13;10.40;;;6.30;1.00;;;;;;5046037;28;20193;-79
2023/01/03 06:36:04;;;;;;;13.53;11.03;;;6.30;1.00;;;;;;5046724;28;20280;-80
2023/01/03 06:38:29;;;;;;;13.17;10.87;;;6.20;1.00;;;;;;5045523;28;20240;-80
2023/01/03 06:40:55;;;;;;;15.63;12.67;;;6.20;1.00;;;;;;5047419;28;20186;-80
2023/01/03 06:43:20;;;;;;;17.03;11.87;;;6.20;1.00;;;;;;5045726;28;20196;-80
2023/01/03 06:54:03;;;;;;;14.23;12.37;;;6.20;1.00;;;;;;5047357;28;20224;-80
2023/01/03 06:56:28;;;;;;;13.73;11.47;;;6.20;1.00;;;;;;5045190;28;20833;-81
2023/01/03 06:58:54;;;;;;;15.77;12.63;;;6.20;1.00;;;;;;5045283;28;20275;-79
2023/01/03 07:01:21;;;;;;;16.43;13.47;;;6.10;1.00;;;;;;5047103;28;20186;-80
2023/01/03 07:03:47;;;;;;;20.23;14.27;;;6.10;1.00;;;;;;5050139;28;20176;-81
2023/01/03 07:06:12;;;;;;;15.77;13.30;;;6.00;1.00;;;;;;5045252;28;20178;-80
2023/01/03 07:08:38;;;;;;;16.07;12.37;;;6.00;1.00;;;;;;5044489;28;20799;-79
2023/01/03 07:11:03;;;;;;;19.77;13.93;;;5.90;1.00;;;;;;5045339;28;21049;-79
2023/01/03 07:16:18;;;;;;;18.30;14.13;;;5.80;1.00;;;;;;5048224;28;20765;-78
2023/01/03 07:18:43;;;;;;;18.57;14.07;;;5.80;1.00;;;;;;5048331;28;20624;-80
2023/01/03 07:21:09;;;;;;;20.70;14.83;;;5.80;1.00;;;;;;5048070;28;20194;-79
2023/01/03 07:23:35;;;;;;;18.07;13.60;;;5.80;1.00;;;;;;5046394;28;20186;-79
2023/01/03 07:26:01;;;;;;;17.37;13.73;;;5.90;1.00;;;;;;5044946;28;20192;-80
2023/01/03 07:28:27;;;;;;;15.77;13.57;;;5.90;1.00;;;;;;5046851;28;20183;-80
2023/01/03 07:31:00;;;;;;;14.13;12.67;;;5.90;1.00;;;;;;5046808;28;20186;-81
2023/01/03 07:33:30;;;;;;;16.77;12.67;;;5.90;1.00;;;;;;5045342;28;20786;-79
2023/01/03 07:36:03;;;;;;;16.00;13.13;;;6.00;1.00;;;;;;5047167;28;20232;-80
2023/01/03 07:38:29;;;;;;;14.53;12.57;;;6.00;1.00;;;;;;5048562;28;20684;-81
2023/01/03 07:40:59;;;;;;;17.13;13.00;;;6.00;1.00;;;;;;5044993;28;20182;-81
2023/01/03 07:43:38;;;;;;;16.17;12.87;;;6.00;1.00;;;;;;5037696;28;20182;-80
2023/01/03 07:46:13;;;;;;;16.03;12.77;;;6.00;1.00;;;;;;5047485;28;20645;-81
2023/01/03 07:48:40;;;;;;;14.53;12.47;;;6.00;1.00;;;;;;5047267;28;20178;-82
2023/01/03 07:51:07;;;;;;;17.00;12.07;;;6.00;1.00;;;;;;5050820;28;20182;-81
2023/01/03 07:53:34;;;;;;;15.00;12.20;;;6.00;1.00;;;;;;5047002;28;20758;-82
2023/01/03 07:56:08;;;;;;;14.33;12.17;;;6.00;1.00;;;;;;5047833;28;20260;-79
2023/01/03 07:58:35;;;;;;;18.83;11.70;;;6.00;1.00;;;;;;5037309;28;20660;-80
2023/01/03 08:01:09;;;;;;;14.57;11.80;;;6.00;1.00;;;;;;5046399;28;20202;-80
2023/01/03 08:03:35;;;;;;;12.30;11.03;;;5.90;1.00;;;;;;5045559;28;20178;-78
2023/01/03 08:06:09;;;;;;;12.43;10.90;;;5.90;1.00;;;;;;5046634;28;20201;-76
2023/01/03 08:08:36;;;;;;;15.17;11.47;;;5.90;1.00;;;;;;5045835;28;20178;-78
2023/01/03 08:13:46;;;;;;;12.33;10.27;;;5.90;1.00;;;;;;5048585;28;20245;-81
2023/01/03 08:16:14;;;;;;;12.33;10.50;;;5.90;1.00;;;;;;5048103;28;20265;-80
2023/01/03 08:18:41;;;;;;;12.70;10.20;;;6.00;1.00;;;;;;5044038;28;20182;-79
2023/01/03 08:21:08;;;;;;;13.93;9.60;;;6.00;1.00;;;;;;5045363;28;20193;-79
2023/01/03 08:23:34;;;;;;;12.30;9.60;;;6.00;99.90;;;;;;5048308;28;20652;-80
2023/01/03 08:26:06;;;;;;;11.60;10.13;;;6.00;99.90;;;;;;5045960;28;20197;-78
2023/01/03 08:28:33;;;;;;;12.73;9.80;;;6.00;99.90;;;;;;5043540;28;20672;-81
2023/01/03 08:31:01;;;;;;;11.23;9.70;;;6.00;1.00;;;;;;5046591;28;20668;-79
2023/01/03 08:33:30;;;;;;;11.13;9.73;;;6.00;1.00;;;;;;5052740;28;20213;-81
2023/01/03 08:36:02;;;;;;;13.00;9.57;;;6.00;1.00;;;;;;5045853;28;20582;-79
2023/01/03 08:38:32;;;;;;;10.60;9.57;;;6.00;1.00;;;;;;5040051;28;20178;-79
2023/01/03 08:41:00;;;;;;;10.70;9.57;;;6.00;1.00;;;;;;5051078;28;20185;-80
2023/01/03 08:43:27;;;;;;;11.10;9.57;;;6.10;1.00;;;;;;5049519;28;20190;-78
2023/01/03 08:45:53;;;;;;;11.80;9.10;;;6.20;1.00;;;;;;5047807;28;20212;-79
2023/01/03 08:48:20;;;;;;;10.77;8.97;;;6.30;99.90;;;;;;5049830;28;20606;-80
2023/01/03 08:50:46;;;;;;;10.97;9.30;;;6.30;99.90;;;;;;5048679;28;20237;-79
2023/01/03 08:53:12;;;;;;;12.23;9.33;;;6.40;99.90;;;;;;5047439;28;20232;-79
2023/01/03 08:55:38;;;;;;;10.73;9.13;;;6.40;99.90;;;;;;5050278;28;20221;-80
2023/01/03 08:58:04;;;;;;;10.37;9.27;;;6.50;99.90;;;;;;5049147;28;20166;-79
2023/01/03 09:00:29;;;;;;;12.40;9.90;;;6.50;99.90;;;;;;5047952;28;20252;-79
2023/01/03 09:02:59;;;;;;;12.10;10.00;;;6.60;99.90;;;;;;5048241;28;20182;-80
2023/01/03 09:05:25;;;;;;;10.10;9.10;;;6.70;99.90;;;;;;5046959;28;20691;-79
2023/01/03 09:07:52;;;;;;;11.37;8.87;;;6.70;99.90;;;;;;5045413;28;20206;-79
2023/01/03 09:10:18;;;;;;;9.47;8.50;;;6.70;99.90;;;;;;5045967;28;20688;-80
2023/01/03 09:12:44;;;;;;;11.10;8.90;;;6.60;99.90;;;;;;5045301;28;20182;-79
2023/01/03 09:15:10;;;;;;;10.83;9.13;;;6.60;99.90;;;;;;5046883;28;20198;-79
2023/01/03 09:17:35;;;;;;;11.93;9.40;;;6.50;99.90;;;;;;5061189;28;20213;-79
2023/01/03 09:20:01;;;;;;;11.57;8.90;;;6.40;99.90;;;;;;5045535;28;20234;-82
2023/01/03 09:22:26;;;;;;;10.93;9.80;;;6.30;99.90;;;;;;5045868;28;20182;-80
2023/01/03 09:24:53;;;;;;;11.47;9.60;;;6.30;99.90;;;;;;5045400;28;20255;-80
2023/01/03 09:27:19;;;;;;;10.50;9.07;;;6.30;99.90;;;;;;5047425;28;20686;-80
2023/01/03 09:29:45;;;;;;;12.27;9.47;;;6.30;99.90;;;;;;5045878;28;20202;-81
2023/01/03 09:32:11;;;;;;;13.03;9.17;;;6.30;99.90;;;;;;5046629;28;20727;-80
2023/01/03 09:34:36;;;;;;;12.90;9.00;;;6.30;99.90;;;;;;5051057;28;20213;-81
2023/01/03 09:37:03;;;;;;;12.13;9.57;;;6.30;99.90;;;;;;5046075;28;20644;-81
2023/01/03 09:39:28;;;;;;;10.87;8.77;;;6.30;99.90;;;;;;5044631;28;20994;-83
2023/01/03 09:44:39;;;;;;;9.43;8.53;;;6.30;99.90;;;;;;5044933;28;20969;-81
2023/01/03 09:47:05;;;;;;;10.70;8.57;;;6.40;99.90;;;;;;5043413;28;20252;-80
2023/01/03 09:49:34;;;;;;;10.13;9.03;;;6.40;99.90;;;;;;5042291;28;20563;-80
2023/01/03 10:03:44;;;;;;;9.90;8.17;;;6.50;99.90;;;;;;5043410;28;20228;-81
2023/01/03 10:06:22;;;;;;;10.43;7.83;;;6.50;93.10;;;;;;5042326;28;20193;-79
2023/01/03 10:09:13;;;;;;;9.63;7.47;;;6.50;57.00;;;;;;5044324;28;20194;-79
2023/01/03 10:11:47;;;;;;;8.00;7.07;;;6.50;65.50;;;;;;5044259;28;20629;-80
2023/01/03 10:14:53;;;;;;;8.17;7.00;;;6.60;40.40;;;;;;5041345;28;20190;-82
2023/01/03 10:17:34;;;;;;;10.50;7.93;;;6.70;45.80;;;;;;5040640;28;20182;-81
2023/01/03 10:20:18;;;;;;;8.27;6.60;;;6.70;41.40;;;;;;5042567;28;20668;-82
2023/01/03 10:22:46;;;;;;;8.33;7.53;;;6.60;34.70;;;;;;5041350;28;20239;-82
2023/01/03 10:25:20;;;;;;;8.67;6.90;;;6.70;30.00;;;;;;5042356;28;20186;-81
2023/01/03 10:27:58;;;;;;;7.83;6.63;;;6.70;24.00;;;;;;5041333;28;20182;-81
2023/01/03 10:31:01;;;;;;;7.93;6.70;;;6.70;9.40;;;;;;5042445;28;20206;-82
2023/01/03 10:33:33;;;;;;;8.53;7.03;;;6.70;11.20;;;;;;5043285;28;20294;-81
2023/01/03 10:36:00;;;;;;;9.80;7.07;;;6.80;18.50;;;;;;5041620;28;20658;-81
2023/01/03 10:38:26;;;;;;;8.43;6.60;;;6.80;6.30;;;;;;5042860;28;20671;-81
2023/01/03 10:40:58;;;;;;;9.10;7.53;;;6.80;1.00;;;;;;5042366;28;20179;-81
2023/01/03 10:43:42;;;;;;;8.63;7.30;;;6.80;1.00;;;;;;5045133;28;20190;-81
2023/01/03 10:46:16;;;;;;;7.80;7.10;;;6.90;1.00;;;;;;5046503;28;20196;-80
2023/01/03 10:48:45;;;;;;;8.03;7.20;;;6.90;1.00;;;;;;5045545;28;20235;-80
2023/01/03 10:51:33;;;;;;;9.27;6.83;;;6.90;1.00;;;;;;5049034;28;20222;-81
2023/01/03 10:54:10;;;;;;;6.90;6.03;;;7.00;1.00;;;;;;5048275;28;20208;-81
2023/01/03 10:56:36;;;;;;;6.70;5.80;;;7.00;1.00;;;;;;5048241;28;20219;-81
2023/01/03 10:59:22;;;;;;;8.53;5.80;;;7.00;1.00;;;;;;5049689;28;20725;-79
2023/01/03 11:02:02;;;;;;;8.43;6.00;;;7.10;1.00;;;;;;5047548;28;20265;-81
2023/01/03 11:04:30;;;;;;;6.73;6.03;;;7.10;1.00;;;;;;5047586;28;20669;-80
2023/01/03 11:07:08;;;;;;;7.07;5.87;;;7.10;1.00;;;;;;5049502;28;20186;-78
2023/01/03 11:09:53;;;;;;;7.73;6.17;;;7.10;1.00;;;;;;5051126;28;20582;-78
2023/01/03 11:12:40;;;;;;;6.77;5.77;;;7.10;1.00;;;;;;5064952;28;20857;-79
2023/01/03 11:15:24;;;;;;;5.77;5.03;;;7.10;1.00;;;;;;5045807;28;20245;-79
2023/01/03 11:17:59;;;;;;;6.83;4.77;;;7.20;1.00;;;;;;5044730;28;20178;-79
2023/01/03 11:20:37;;;;;;;4.67;4.00;;;7.10;1.00;;;;;;5045383;28;20236;-78
2023/01/03 11:23:10;;;;;;;6.10;4.50;;;7.10;1.00;;;;;;5044867;28;20214;-79
2023/01/03 11:25:51;;;;;;;5.10;4.30;;;7.10;1.00;;;;;;5044467;28;20178;-81
2023/01/03 11:28:41;;;;;;;5.77;4.47;;;7.10;1.00;;;;;;5046214;28;20185;-79
2023/01/03 11:31:48;;;;;;;5.30;4.20;;;7.10;1.00;;;;;;5045782;28;20193;-78
2023/01/03 11:34:31;;;;;;;8.53;4.40;;;7.10;1.00;;;;;;5032255;28;20198;-80
2023/01/03 11:37:19;;;;;;;4.30;3.50;;;7.20;1.00;;;;;;5041893;28;20782;-80
2023/01/03 11:40:28;;;;;;;4.30;3.90;;;7.10;1.00;;;;;;5045365;28;20224;-79
2023/01/03 11:43:10;;;;;;;4.97;3.70;;;7.20;1.00;;;;;;5016008;28;20193;-79
2023/01/03 11:45:39;;;;;;;3.97;3.57;;;7.10;1.00;;;;;;5046197;28;20197;-79
2023/01/03 11:48:33;;;;;;;5.40;3.60;;;7.10;1.00;;;;;;5046416;28;20225;-80
2023/01/03 11:51:12;;;;;;;4.57;3.07;;;7.10;1.00;;;;;;5042484;28;20220;-79
2023/01/03 11:54:00;;;;;;;5.27;3.17;;;7.20;1.00;;;;;;5043135;28;20197;-78
2023/01/03 11:56:35;;;;;;;5.20;3.33;;;7.20;1.00;;;;;;5042202;28;20244;-81
2023/01/03 11:59:49;;;;;;;5.27;3.10;;;7.20;1.00;;;;;;5044399;28;20198;-79
2023/01/03 12:02:37;;;;;;;3.90;2.80;;;7.20;1.00;;;;;;4989923;28;20427;-81
2023/01/03 12:05:31;;;;;;;6.90;3.47;;;7.20;1.00;;;;;;5042570;28;20809;-81
2023/01/03 12:08:37;;;;;;;3.67;3.00;;;7.20;1.00;;;;;;5042791;28;20190;-82
2023/01/03 12:11:17;;;;;;;3.80;3.30;;;7.20;1.00;;;;;;5024292;28;20289;-81
2023/01/03 12:14:04;;;;;;;4.07;2.87;;;7.30;1.00;;;;;;5046612;28;20580;-81
2023/01/03 12:16:40;;;;;;;4.73;2.80;;;7.30;1.00;;;;;;5045521;28;20200;-79
2023/01/03 12:19:30;;;;;;;4.53;2.67;;;7.30;1.00;;;;;;5045221;28;20904;-80
2023/01/03 12:22:14;;;;;;;3.20;2.40;;;7.30;1.00;;;;;;5047343;28;20206;-78
2023/01/03 12:25:10;;;;;;;3.00;2.40;;;7.30;1.00;;;;;;5057625;28;20189;-79
2023/01/03 12:27:59;;;;;;;4.47;2.53;;;7.30;1.00;;;;;;5036523;28;20191;-77
2023/01/03 12:30:43;;;;;;;2.47;2.13;;;7.30;1.00;;;;;;5043791;28;20209;-78
2023/01/03 12:33:41;;;;;;;4.10;2.40;;;7.30;1.00;;;;;;5046236;28;20190;-79
2023/01/03 12:36:25;;;;;;;3.10;2.50;;;7.40;1.00;;;;;;5043142;28;20210;-81
2023/01/03 12:39:34;;;;;;;2.87;2.50;;;7.30;1.00;;;;;;5045949;28;20191;-80
2023/01/03 12:42:26;;;;;;;4.90;2.80;;;7.30;1.00;;;;;;5046792;28;20274;-79
2023/01/03 12:45:02;;;;;;;4.17;2.67;;;7.30;1.00;;;;;;5034655;28;20191;-79
2023/01/03 12:47:49;;;;;;;3.83;2.37;;;7.30;1.00;;;;;;5046610;28;20186;-78
2023/01/03 12:50:26;;;;;;;2.90;2.43;;;7.30;1.00;;;;;;5044353;28;20206;-81
2023/01/03 12:53:29;;;;;;;5.27;2.70;;;7.30;1.00;;;;;;5044941;28;20186;-78
2023/01/03 12:56:14;;;;;;;4.77;2.67;;;7.30;1.00;;;;;;5046051;28;20198;-79
2023/01/03 12:58:59;;;;;;;4.40;2.70;;;7.20;1.00;;;;;;5046167;28;20610;-78
2023/01/03 13:01:35;;;;;;;3.97;2.80;;;7.20;1.00;;;;;;5046608;28;20193;-79
2023/01/03 13:04:08;;;;;;;3.53;2.57;;;7.20;1.00;;;;;;5046448;28;20274;-80
2023/01/03 13:06:38;;;;;;;4.37;2.80;;;7.20;1.00;;;;;;5045799;28;20340;-79
2023/01/03 13:09:18;;;;;;;3.87;2.50;;;7.20;1.00;;;;;;5046593;28;20584;-79
2023/01/03 13:11:52;;;;;;;3.03;2.70;;;7.20;1.00;;;;;;5044882;28;20185;-79
2023/01/03 13:14:27;;;;;;;3.40;2.70;;;7.20;1.00;;;;;;5045398;28;20185;-80
2023/01/03 13:16:55;;;;;;;3.57;2.60;;;7.20;1.00;;;;;;5045672;28;20668;-79
2023/01/03 13:19:21;;;;;;;3.73;2.50;;;7.30;1.00;;;;;;5045924;28;20202;-79
2023/01/03 13:21:52;;;;;;;3.60;2.40;;;7.30;1.00;;;;;;5048503;28;20193;-81
2023/01/03 13:24:39;;;;;;;2.43;2.20;;;7.20;1.00;;;;;;5044460;28;20186;-85
2023/01/03 13:27:20;;;;;;;4.43;2.37;;;7.20;1.00;;;;;;5031012;28;20201;-83
2023/01/03 13:29:48;;;;;;;4.43;2.17;;;7.20;1.00;;;;;;5035232;28;20309;-80
2023/01/03 13:32:16;;;;;;;5.17;2.37;;;7.20;1.00;;;;;;5044582;28;20186;-82
2023/01/03 13:34:42;;;;;;;7.37;6.20;;;7.20;1.00;;;;;;5049152;28;20174;-79
2023/01/03 13:37:10;;;;;;;5.57;2.00;;;7.20;1.00;;;;;;5049858;28;20789;-80
2023/01/03 13:39:54;;;;;;;3.90;1.80;;;7.20;1.00;;;;;;5043690;28;20280;-82
2023/01/03 13:42:27;;;;;;;3.20;2.00;;;7.20;1.00;;;;;;5042600;28;20284;-79
2023/01/03 13:45:16;;;;;;;2.53;1.83;;;7.30;1.00;;;;;;5042965;28;20457;-80
2023/01/03 13:47:50;;;;;;;13.40;7.57;;;7.30;1.00;;;;;;5041272;28;20182;-79
2023/01/03 13:50:20;;;;;;;5.87;3.23;;;7.30;1.00;;;;;;5041116;28;20208;-80
2023/01/03 13:52:58;;;;;;;4.77;2.30;;;7.40;1.00;;;;;;5041225;28;20620;-80
2023/01/03 13:55:40;;;;;;;4.33;2.03;;;7.60;1.00;;;;;;5042398;28;20198;-80
2023/01/03 13:58:36;;;;;;;3.60;2.10;;;7.60;1.00;;;;;;5042882;28;20187;-80
2023/01/03 14:01:05;;;;;;;2.73;2.10;;;7.70;1.00;;;;;;5042105;28;20174;-81
2023/01/03 14:03:57;;;;;;;3.00;2.70;;;7.90;1.00;;;;;;5043810;28;20182;-79
2023/01/03 14:07:02;;;;;;;4.93;2.60;;;7.80;1.00;;;;;;5042433;28;20186;-79
2023/01/03 14:09:47;;;;;;;2.87;2.47;;;7.90;1.00;;;;;;5042033;28;20205;-79
2023/01/03 14:12:15;;;;;;;3.63;2.30;;;8.00;1.00;;;;;;5049518;28;20220;-79
2023/01/03 14:14:41;;;;;;;2.83;1.90;;;8.00;1.00;;;;;;5044758;28;20632;-79
2023/01/03 14:17:21;;;;;;;2.27;2.07;;;8.10;1.00;;;;;;5045528;28;20292;-80
2023/01/03 14:19:52;;;;;;;4.30;1.90;;;8.10;1.00;;;;;;5045893;28;20205;-80
2023/01/03 14:22:36;;;;;;;3.40;1.70;;;8.20;1.00;;;;;;5045138;28;20595;-79
2023/01/03 14:25:01;;;;;;;2.53;1.50;;;8.20;1.00;;;;;;5049936;28;20683;-79
2023/01/03 14:27:34;;;;;;;3.50;1.50;;;8.30;1.00;;;;;;5042287;28;20186;-80
2023/01/03 14:30:00;;;;;;;2.27;1.70;;;8.30;1.00;;;;;;5042346;28;20224;-80